sensor_id;sensor_type;location;lat;lon;timestamp;P1;durP1;ratioP1;P2;durP2;ratioP2
70052;SDS011;57398;52.032;4.376;2023-05-07T00:00:01;51.42;;;22.15;;
70052;SDS011;57398;52.032;4.376;2023-05-07T00:02:50;44.72;;;20.58;;
70052;SDS011;57398;52.032;4.376;2023-05-07T00:05:38;41.87;;;19.93;;
70052;SDS011;57398;52.032;4.376;2023-05-07T00:08:28;47.78;;;20.83;;
70052;SDS011;57398;52.032;4.376;2023-05-07T00:11:16;48.33;;;21.10;;
70052;SDS011;57398;52.032;4.376;2023-05-07T00:14:04;45.78;;;21.85;;
70052;SDS011;57398;52.032;4.376;2023-05-07T00:16:55;47.83;;;20.38;;
70052;SDS011;57398;52.032;4.376;2023-05-07T00:19:43;48.90;;;21.23;;
70052;SDS011;57398;52.032;4.376;2023-05-07T00:22:31;46.22;;;20.88;;
70052;SDS011;57398;52.032;4.376;2023-05-07T00:25:20;48.85;;;20.98;;
70052;SDS011;57398;52.032;4.376;2023-05-07T00:28:08;54.53;;;21.77;;
70052;SDS011;57398;52.032;4.376;2023-05-07T00:30:56;50.38;;;22.40;;
70052;SDS011;57398;52.032;4.376;2023-05-07T00:33:45;53.73;;;21.87;;
70052;SDS011;57398;52.032;4.376;2023-05-07T00:36:33;50.45;;;21.73;;
70052;SDS011;57398;52.032;4.376;2023-05-07T00:39:21;49.92;;;22.17;;
70052;SDS011;57398;52.032;4.376;2023-05-07T00:42:09;53.95;;;21.30;;
70052;SDS011;57398;52.032;4.376;2023-05-07T00:44:58;49.88;;;21.83;;
70052;SDS011;57398;52.032;4.376;2023-05-07T00:47:46;48.23;;;21.57;;
70052;SDS011;57398;52.032;4.376;2023-05-07T00:50:36;56.22;;;22.35;;
70052;SDS011;57398;52.032;4.376;2023-05-07T00:53:24;49.22;;;22.00;;
70052;SDS011;57398;52.032;4.376;2023-05-07T00:56:13;50.00;;;20.15;;
70052;SDS011;57398;52.032;4.376;2023-05-07T00:59:01;46.83;;;20.90;;
70052;SDS011;57398;52.032;4.376;2023-05-07T01:01:50;47.90;;;21.37;;
70052;SDS011;57398;52.032;4.376;2023-05-07T01:04:39;51.95;;;21.88;;
70052;SDS011;57398;52.032;4.376;2023-05-07T01:07:29;51.25;;;21.95;;
70052;SDS011;57398;52.032;4.376;2023-05-07T01:10:18;52.20;;;22.63;;
70052;SDS011;57398;52.032;4.376;2023-05-07T01:13:07;50.35;;;21.42;;
70052;SDS011;57398;52.032;4.376;2023-05-07T01:15:55;47.70;;;21.33;;
70052;SDS011;57398;52.032;4.376;2023-05-07T01:18:43;53.35;;;22.83;;
70052;SDS011;57398;52.032;4.376;2023-05-07T01:21:33;51.63;;;21.33;;
70052;SDS011;57398;52.032;4.376;2023-05-07T01:24:25;51.72;;;21.50;;
70052;SDS011;57398;52.032;4.376;2023-05-07T01:27:13;49.20;;;20.38;;
70052;SDS011;57398;52.032;4.376;2023-05-07T01:30:01;51.23;;;19.87;;
70052;SDS011;57398;52.032;4.376;2023-05-07T01:32:51;49.70;;;20.10;;
70052;SDS011;57398;52.032;4.376;2023-05-07T01:35:43;51.85;;;20.90;;
70052;SDS011;57398;52.032;4.376;2023-05-07T01:38:35;49.13;;;19.55;;
70052;SDS011;57398;52.032;4.376;2023-05-07T01:41:26;46.33;;;19.77;;
70052;SDS011;57398;52.032;4.376;2023-05-07T01:44:14;46.07;;;19.67;;
70052;SDS011;57398;52.032;4.376;2023-05-07T01:47:04;47.55;;;19.40;;
70052;SDS011;57398;52.032;4.376;2023-05-07T01:49:53;44.63;;;19.08;;
70052;SDS011;57398;52.032;4.376;2023-05-07T01:52:42;45.17;;;18.40;;
70052;SDS011;57398;52.032;4.376;2023-05-07T01:55:31;42.17;;;18.45;;
70052;SDS011;57398;52.032;4.376;2023-05-07T01:58:20;46.60;;;19.07;;
70052;SDS011;57398;52.032;4.376;2023-05-07T02:01:08;47.35;;;19.27;;
70052;SDS011;57398;52.032;4.376;2023-05-07T02:03:56;43.13;;;18.17;;
70052;SDS011;57398;52.032;4.376;2023-05-07T02:06:45;42.05;;;18.15;;
70052;SDS011;57398;52.032;4.376;2023-05-07T02:09:33;40.40;;;17.33;;
70052;SDS011;57398;52.032;4.376;2023-05-07T02:12:21;40.27;;;18.07;;
70052;SDS011;57398;52.032;4.376;2023-05-07T02:15:11;39.78;;;16.80;;
70052;SDS011;57398;52.032;4.376;2023-05-07T02:18:00;39.35;;;17.30;;
70052;SDS011;57398;52.032;4.376;2023-05-07T02:20:49;36.72;;;15.57;;
70052;SDS011;57398;52.032;4.376;2023-05-07T02:23:37;40.97;;;17.50;;
70052;SDS011;57398;52.032;4.376;2023-05-07T02:26:25;38.23;;;16.73;;
70052;SDS011;57398;52.032;4.376;2023-05-07T02:29:13;37.75;;;17.65;;
70052;SDS011;57398;52.032;4.376;2023-05-07T02:32:02;36.78;;;17.17;;
70052;SDS011;57398;52.032;4.376;2023-05-07T02:34:51;40.30;;;17.67;;
70052;SDS011;57398;52.032;4.376;2023-05-07T02:37:40;41.20;;;18.10;;
70052;SDS011;57398;52.032;4.376;2023-05-07T02:40:28;42.87;;;18.47;;
70052;SDS011;57398;52.032;4.376;2023-05-07T02:43:16;39.80;;;18.13;;
70052;SDS011;57398;52.032;4.376;2023-05-07T02:46:05;39.67;;;18.02;;
70052;SDS011;57398;52.032;4.376;2023-05-07T02:48:55;38.28;;;17.73;;
70052;SDS011;57398;52.032;4.376;2023-05-07T02:51:44;41.97;;;18.85;;
70052;SDS011;57398;52.032;4.376;2023-05-07T02:54:32;37.50;;;17.43;;
70052;SDS011;57398;52.032;4.376;2023-05-07T02:57:20;40.75;;;17.83;;
70052;SDS011;57398;52.032;4.376;2023-05-07T03:00:12;41.30;;;18.80;;
70052;SDS011;57398;52.032;4.376;2023-05-07T03:03:01;38.92;;;19.05;;
70052;SDS011;57398;52.032;4.376;2023-05-07T03:05:51;39.42;;;19.27;;
70052;SDS011;57398;52.032;4.376;2023-05-07T03:08:39;40.93;;;19.30;;
70052;SDS011;57398;52.032;4.376;2023-05-07T03:11:27;44.60;;;20.33;;
70052;SDS011;57398;52.032;4.376;2023-05-07T03:14:15;38.70;;;17.95;;
70052;SDS011;57398;52.032;4.376;2023-05-07T03:17:03;38.35;;;18.50;;
70052;SDS011;57398;52.032;4.376;2023-05-07T03:19:51;39.88;;;19.05;;
70052;SDS011;57398;52.032;4.376;2023-05-07T03:22:41;38.77;;;17.93;;
70052;SDS011;57398;52.032;4.376;2023-05-07T03:25:29;41.95;;;18.73;;
70052;SDS011;57398;52.032;4.376;2023-05-07T03:28:17;39.83;;;19.02;;
70052;SDS011;57398;52.032;4.376;2023-05-07T03:31:05;39.47;;;18.55;;
70052;SDS011;57398;52.032;4.376;2023-05-07T03:33:54;41.50;;;19.30;;
70052;SDS011;57398;52.032;4.376;2023-05-07T03:36:43;37.80;;;18.87;;
70052;SDS011;57398;52.032;4.376;2023-05-07T03:39:32;38.67;;;18.90;;
70052;SDS011;57398;52.032;4.376;2023-05-07T03:42:21;38.58;;;19.17;;
70052;SDS011;57398;52.032;4.376;2023-05-07T03:45:09;40.17;;;20.08;;
70052;SDS011;57398;52.032;4.376;2023-05-07T03:47:57;40.42;;;19.40;;
70052;SDS011;57398;52.032;4.376;2023-05-07T03:50:45;37.13;;;19.03;;
70052;SDS011;57398;52.032;4.376;2023-05-07T03:53:34;38.03;;;18.77;;
70052;SDS011;57398;52.032;4.376;2023-05-07T03:56:23;41.83;;;20.08;;
70052;SDS011;57398;52.032;4.376;2023-05-07T03:59:13;39.28;;;20.00;;
70052;SDS011;57398;52.032;4.376;2023-05-07T04:02:01;37.00;;;19.20;;
70052;SDS011;57398;52.032;4.376;2023-05-07T04:04:51;36.53;;;19.13;;
70052;SDS011;57398;52.032;4.376;2023-05-07T04:07:39;37.28;;;19.10;;
70052;SDS011;57398;52.032;4.376;2023-05-07T04:10:28;34.08;;;18.73;;
70052;SDS011;57398;52.032;4.376;2023-05-07T04:13:18;37.17;;;18.92;;
70052;SDS011;57398;52.032;4.376;2023-05-07T04:16:06;34.28;;;18.00;;
70052;SDS011;57398;52.032;4.376;2023-05-07T04:18:54;35.37;;;18.50;;
70052;SDS011;57398;52.032;4.376;2023-05-07T04:21:43;35.60;;;17.52;;
70052;SDS011;57398;52.032;4.376;2023-05-07T04:24:31;35.70;;;19.08;;
70052;SDS011;57398;52.032;4.376;2023-05-07T04:27:20;36.45;;;18.30;;
70052;SDS011;57398;52.032;4.376;2023-05-07T04:30:10;34.95;;;17.95;;
70052;SDS011;57398;52.032;4.376;2023-05-07T04:33:00;35.93;;;17.90;;
70052;SDS011;57398;52.032;4.376;2023-05-07T04:35:48;32.22;;;17.77;;
70052;SDS011;57398;52.032;4.376;2023-05-07T04:38:36;32.88;;;17.58;;
70052;SDS011;57398;52.032;4.376;2023-05-07T04:41:24;33.22;;;17.75;;
70052;SDS011;57398;52.032;4.376;2023-05-07T04:44:12;33.95;;;16.83;;
70052;SDS011;57398;52.032;4.376;2023-05-07T04:47:01;37.80;;;17.90;;
70052;SDS011;57398;52.032;4.376;2023-05-07T04:49:49;33.55;;;17.42;;
70052;SDS011;57398;52.032;4.376;2023-05-07T04:52:37;35.10;;;17.20;;
70052;SDS011;57398;52.032;4.376;2023-05-07T04:55:25;33.67;;;17.73;;
70052;SDS011;57398;52.032;4.376;2023-05-07T04:58:13;33.42;;;16.85;;
70052;SDS011;57398;52.032;4.376;2023-05-07T05:01:02;32.40;;;16.90;;
70052;SDS011;57398;52.032;4.376;2023-05-07T05:03:52;33.20;;;17.73;;
70052;SDS011;57398;52.032;4.376;2023-05-07T05:06:41;31.65;;;17.05;;
70052;SDS011;57398;52.032;4.376;2023-05-07T05:09:29;31.60;;;16.88;;
70052;SDS011;57398;52.032;4.376;2023-05-07T05:12:17;31.63;;;17.20;;
70052;SDS011;57398;52.032;4.376;2023-05-07T05:15:05;31.33;;;17.43;;
70052;SDS011;57398;52.032;4.376;2023-05-07T05:17:54;32.60;;;17.77;;
70052;SDS011;57398;52.032;4.376;2023-05-07T05:20:43;30.15;;;16.52;;
70052;SDS011;57398;52.032;4.376;2023-05-07T05:23:31;31.33;;;16.75;;
70052;SDS011;57398;52.032;4.376;2023-05-07T05:26:19;31.92;;;17.35;;
70052;SDS011;57398;52.032;4.376;2023-05-07T05:29:08;31.93;;;16.37;;
70052;SDS011;57398;52.032;4.376;2023-05-07T05:31:56;30.65;;;16.05;;
70052;SDS011;57398;52.032;4.376;2023-05-07T05:34:45;31.40;;;17.48;;
70052;SDS011;57398;52.032;4.376;2023-05-07T05:37:34;29.73;;;16.15;;
70052;SDS011;57398;52.032;4.376;2023-05-07T05:40:22;29.15;;;15.75;;
70052;SDS011;57398;52.032;4.376;2023-05-07T05:43:10;28.07;;;16.53;;
70052;SDS011;57398;52.032;4.376;2023-05-07T05:45:58;28.33;;;16.13;;
70052;SDS011;57398;52.032;4.376;2023-05-07T05:48:47;29.02;;;16.52;;
70052;SDS011;57398;52.032;4.376;2023-05-07T05:51:35;28.77;;;16.45;;
70052;SDS011;57398;52.032;4.376;2023-05-07T05:54:24;27.27;;;16.08;;
70052;SDS011;57398;52.032;4.376;2023-05-07T05:57:13;28.20;;;15.50;;
70052;SDS011;57398;52.032;4.376;2023-05-07T06:00:01;27.80;;;16.40;;
70052;SDS011;57398;52.032;4.376;2023-05-07T06:02:50;26.52;;;15.07;;
70052;SDS011;57398;52.032;4.376;2023-05-07T06:05:38;26.98;;;15.15;;
70052;SDS011;57398;52.032;4.376;2023-05-07T06:08:28;24.30;;;14.50;;
70052;SDS011;57398;52.032;4.376;2023-05-07T06:11:18;26.30;;;14.77;;
70052;SDS011;57398;52.032;4.376;2023-05-07T06:14:06;25.58;;;14.75;;
70052;SDS011;57398;52.032;4.376;2023-05-07T06:16:54;27.02;;;13.98;;
70052;SDS011;57398;52.032;4.376;2023-05-07T06:19:42;25.15;;;13.77;;
70052;SDS011;57398;52.032;4.376;2023-05-07T06:22:30;23.52;;;14.27;;
70052;SDS011;57398;52.032;4.376;2023-05-07T06:25:18;23.07;;;14.33;;
70052;SDS011;57398;52.032;4.376;2023-05-07T06:28:08;23.20;;;13.65;;
70052;SDS011;57398;52.032;4.376;2023-05-07T06:31:10;24.23;;;14.27;;
70052;SDS011;57398;52.032;4.376;2023-05-07T06:33:58;26.35;;;14.63;;
70052;SDS011;57398;52.032;4.376;2023-05-07T06:36:48;23.55;;;13.77;;
70052;SDS011;57398;52.032;4.376;2023-05-07T06:39:37;22.50;;;13.67;;
70052;SDS011;57398;52.032;4.376;2023-05-07T06:42:25;21.33;;;13.05;;
70052;SDS011;57398;52.032;4.376;2023-05-07T06:45:14;22.50;;;12.80;;
70052;SDS011;57398;52.032;4.376;2023-05-07T06:48:03;22.23;;;12.63;;
70052;SDS011;57398;52.032;4.376;2023-05-07T06:50:51;23.52;;;12.65;;
70052;SDS011;57398;52.032;4.376;2023-05-07T06:53:41;21.80;;;13.13;;
70052;SDS011;57398;52.032;4.376;2023-05-07T06:56:29;23.92;;;12.80;;
70052;SDS011;57398;52.032;4.376;2023-05-07T06:59:19;21.35;;;12.18;;
70052;SDS011;57398;52.032;4.376;2023-05-07T07:02:08;22.42;;;13.05;;
70052;SDS011;57398;52.032;4.376;2023-05-07T07:04:56;20.13;;;11.68;;
70052;SDS011;57398;52.032;4.376;2023-05-07T07:07:44;19.23;;;11.70;;
70052;SDS011;57398;52.032;4.376;2023-05-07T07:10:39;21.45;;;11.68;;
70052;SDS011;57398;52.032;4.376;2023-05-07T07:13:27;19.45;;;11.55;;
70052;SDS011;57398;52.032;4.376;2023-05-07T07:16:15;21.08;;;11.38;;
70052;SDS011;57398;52.032;4.376;2023-05-07T07:19:04;18.60;;;11.00;;
70052;SDS011;57398;52.032;4.376;2023-05-07T07:21:52;20.57;;;11.53;;
70052;SDS011;57398;52.032;4.376;2023-05-07T07:24:41;18.98;;;11.68;;
70052;SDS011;57398;52.032;4.376;2023-05-07T07:27:28;17.52;;;10.75;;
70052;SDS011;57398;52.032;4.376;2023-05-07T07:30:17;19.13;;;10.70;;
70052;SDS011;57398;52.032;4.376;2023-05-07T07:33:05;16.42;;;10.10;;
70052;SDS011;57398;52.032;4.376;2023-05-07T07:35:55;17.23;;;10.83;;
70052;SDS011;57398;52.032;4.376;2023-05-07T07:38:43;18.92;;;11.18;;
70052;SDS011;57398;52.032;4.376;2023-05-07T07:41:31;18.80;;;11.30;;
70052;SDS011;57398;52.032;4.376;2023-05-07T07:44:19;19.30;;;11.02;;
70052;SDS011;57398;52.032;4.376;2023-05-07T07:47:07;21.02;;;10.70;;
70052;SDS011;57398;52.032;4.376;2023-05-07T07:49:55;20.47;;;11.60;;
70052;SDS011;57398;52.032;4.376;2023-05-07T07:52:45;19.08;;;11.45;;
70052;SDS011;57398;52.032;4.376;2023-05-07T07:55:37;19.13;;;11.45;;
70052;SDS011;57398;52.032;4.376;2023-05-07T07:58:26;17.23;;;10.15;;
70052;SDS011;57398;52.032;4.376;2023-05-07T08:01:14;18.15;;;11.10;;
70052;SDS011;57398;52.032;4.376;2023-05-07T08:04:03;19.37;;;11.60;;
70052;SDS011;57398;52.032;4.376;2023-05-07T08:06:52;17.88;;;10.90;;
70052;SDS011;57398;52.032;4.376;2023-05-07T08:09:46;17.67;;;10.50;;
70052;SDS011;57398;52.032;4.376;2023-05-07T08:12:34;16.27;;;10.55;;
70052;SDS011;57398;52.032;4.376;2023-05-07T08:15:22;17.60;;;10.68;;
70052;SDS011;57398;52.032;4.376;2023-05-07T08:18:10;16.70;;;10.20;;
70052;SDS011;57398;52.032;4.376;2023-05-07T08:20:59;17.13;;;10.85;;
70052;SDS011;57398;52.032;4.376;2023-05-07T08:23:47;17.90;;;10.52;;
70052;SDS011;57398;52.032;4.376;2023-05-07T08:26:36;18.00;;;10.52;;
70052;SDS011;57398;52.032;4.376;2023-05-07T08:29:25;16.77;;;10.27;;
70052;SDS011;57398;52.032;4.376;2023-05-07T08:32:13;17.10;;;10.00;;
70052;SDS011;57398;52.032;4.376;2023-05-07T08:35:01;18.13;;;10.13;;
70052;SDS011;57398;52.032;4.376;2023-05-07T08:37:50;17.08;;;10.55;;
70052;SDS011;57398;52.032;4.376;2023-05-07T08:40:38;15.82;;;9.50;;
70052;SDS011;57398;52.032;4.376;2023-05-07T08:43:29;18.40;;;11.20;;
70052;SDS011;57398;52.032;4.376;2023-05-07T08:46:21;18.13;;;11.33;;
70052;SDS011;57398;52.032;4.376;2023-05-07T08:49:10;17.10;;;9.38;;
70052;SDS011;57398;52.032;4.376;2023-05-07T08:51:58;14.27;;;9.20;;
70052;SDS011;57398;52.032;4.376;2023-05-07T08:54:47;14.27;;;8.55;;
70052;SDS011;57398;52.032;4.376;2023-05-07T08:57:35;12.57;;;7.50;;
70052;SDS011;57398;52.032;4.376;2023-05-07T09:00:27;12.13;;;7.53;;
70052;SDS011;57398;52.032;4.376;2023-05-07T09:03:15;12.27;;;7.10;;
70052;SDS011;57398;52.032;4.376;2023-05-07T09:06:04;11.65;;;7.10;;
70052;SDS011;57398;52.032;4.376;2023-05-07T09:08:52;12.10;;;6.78;;
70052;SDS011;57398;52.032;4.376;2023-05-07T09:11:42;13.18;;;7.47;;
70052;SDS011;57398;52.032;4.376;2023-05-07T09:14:30;12.27;;;7.40;;
70052;SDS011;57398;52.032;4.376;2023-05-07T09:17:19;11.52;;;7.45;;
70052;SDS011;57398;52.032;4.376;2023-05-07T09:20:07;14.10;;;7.88;;
70052;SDS011;57398;52.032;4.376;2023-05-07T09:22:57;11.35;;;6.68;;
70052;SDS011;57398;52.032;4.376;2023-05-07T09:25:45;9.40;;;5.72;;
70052;SDS011;57398;52.032;4.376;2023-05-07T09:28:33;11.47;;;6.47;;
70052;SDS011;57398;52.032;4.376;2023-05-07T09:31:21;10.38;;;5.60;;
70052;SDS011;57398;52.032;4.376;2023-05-07T09:34:12;12.40;;;5.90;;
70052;SDS011;57398;52.032;4.376;2023-05-07T09:37:00;9.48;;;5.03;;
70052;SDS011;57398;52.032;4.376;2023-05-07T09:39:49;10.35;;;6.15;;
70052;SDS011;57398;52.032;4.376;2023-05-07T09:42:38;14.33;;;6.80;;
70052;SDS011;57398;52.032;4.376;2023-05-07T09:45:33;12.50;;;7.13;;
70052;SDS011;57398;52.032;4.376;2023-05-07T09:49:09;13.68;;;7.40;;
70052;SDS011;57398;52.032;4.376;2023-05-07T09:52:23;11.90;;;6.72;;
70052;SDS011;57398;52.032;4.376;2023-05-07T09:59:46;14.40;;;7.47;;
70052;SDS011;57398;52.032;4.376;2023-05-07T10:02:35;11.80;;;6.95;;
70052;SDS011;57398;52.032;4.376;2023-05-07T10:05:25;12.57;;;6.55;;
70052;SDS011;57398;52.032;4.376;2023-05-07T10:08:14;12.15;;;6.72;;
70052;SDS011;57398;52.032;4.376;2023-05-07T10:11:03;13.13;;;6.65;;
70052;SDS011;57398;52.032;4.376;2023-05-07T10:13:52;10.43;;;5.90;;
70052;SDS011;57398;52.032;4.376;2023-05-07T10:16:40;12.57;;;6.30;;
70052;SDS011;57398;52.032;4.376;2023-05-07T10:19:29;11.45;;;6.38;;
70052;SDS011;57398;52.032;4.376;2023-05-07T10:22:19;11.13;;;7.03;;
70052;SDS011;57398;52.032;4.376;2023-05-07T10:25:11;13.07;;;7.68;;
70052;SDS011;57398;52.032;4.376;2023-05-07T10:28:04;11.50;;;6.63;;
70052;SDS011;57398;52.032;4.376;2023-05-07T10:30:58;14.15;;;7.75;;
70052;SDS011;57398;52.032;4.376;2023-05-07T10:33:55;11.15;;;6.82;;
70052;SDS011;57398;52.032;4.376;2023-05-07T10:36:44;12.30;;;6.80;;
70052;SDS011;57398;52.032;4.376;2023-05-07T10:39:34;11.77;;;6.50;;
70052;SDS011;57398;52.032;4.376;2023-05-07T10:42:22;13.77;;;6.53;;
70052;SDS011;57398;52.032;4.376;2023-05-07T10:45:11;11.15;;;6.03;;
70052;SDS011;57398;52.032;4.376;2023-05-07T10:48:07;12.00;;;6.40;;
70052;SDS011;57398;52.032;4.376;2023-05-07T10:51:19;11.95;;;6.50;;
70052;SDS011;57398;52.032;4.376;2023-05-07T10:54:21;13.18;;;6.78;;
70052;SDS011;57398;52.032;4.376;2023-05-07T11:00:42;11.50;;;6.18;;
70052;SDS011;57398;52.032;4.376;2023-05-07T11:03:34;10.77;;;5.68;;
70052;SDS011;57398;52.032;4.376;2023-05-07T11:06:23;10.68;;;5.10;;
70052;SDS011;57398;52.032;4.376;2023-05-07T11:09:12;10.52;;;5.50;;
70052;SDS011;57398;52.032;4.376;2023-05-07T11:12:14;12.33;;;5.57;;
70052;SDS011;57398;52.032;4.376;2023-05-07T11:15:05;9.48;;;5.80;;
70052;SDS011;57398;52.032;4.376;2023-05-07T11:17:54;11.82;;;5.78;;
70052;SDS011;57398;52.032;4.376;2023-05-07T11:20:47;10.00;;;5.38;;
70052;SDS011;57398;52.032;4.376;2023-05-07T11:23:56;11.52;;;5.82;;
70052;SDS011;57398;52.032;4.376;2023-05-07T11:26:49;12.80;;;6.20;;
70052;SDS011;57398;52.032;4.376;2023-05-07T11:29:37;10.35;;;6.78;;
70052;SDS011;57398;52.032;4.376;2023-05-07T11:32:27;13.90;;;6.95;;
70052;SDS011;57398;52.032;4.376;2023-05-07T11:35:17;11.02;;;6.60;;
70052;SDS011;57398;52.032;4.376;2023-05-07T11:38:05;11.52;;;6.97;;
70052;SDS011;57398;52.032;4.376;2023-05-07T11:40:54;16.50;;;9.93;;
70052;SDS011;57398;52.032;4.376;2023-05-07T11:43:56;18.10;;;11.20;;
70052;SDS011;57398;52.032;4.376;2023-05-07T11:46:45;19.85;;;12.35;;
70052;SDS011;57398;52.032;4.376;2023-05-07T11:49:35;25.40;;;13.32;;
70052;SDS011;57398;52.032;4.376;2023-05-07T11:52:23;21.75;;;12.15;;
70052;SDS011;57398;52.032;4.376;2023-05-07T11:55:12;22.67;;;12.43;;
70052;SDS011;57398;52.032;4.376;2023-05-07T11:58:00;20.02;;;12.70;;
70052;SDS011;57398;52.032;4.376;2023-05-07T12:00:48;25.05;;;13.10;;
70052;SDS011;57398;52.032;4.376;2023-05-07T12:03:37;22.23;;;13.45;;
70052;SDS011;57398;52.032;4.376;2023-05-07T12:06:26;24.92;;;13.40;;
70052;SDS011;57398;52.032;4.376;2023-05-07T12:09:15;23.53;;;13.60;;
70052;SDS011;57398;52.032;4.376;2023-05-07T12:12:05;23.88;;;13.68;;
70052;SDS011;57398;52.032;4.376;2023-05-07T12:14:54;23.95;;;13.63;;
70052;SDS011;57398;52.032;4.376;2023-05-07T12:17:42;23.92;;;13.82;;
70052;SDS011;57398;52.032;4.376;2023-05-07T12:20:30;29.90;;;13.25;;
70052;SDS011;57398;52.032;4.376;2023-05-07T12:23:19;25.00;;;13.63;;
70052;SDS011;57398;52.032;4.376;2023-05-07T12:26:09;24.30;;;13.27;;
70052;SDS011;57398;52.032;4.376;2023-05-07T12:28:57;29.67;;;14.57;;
70052;SDS011;57398;52.032;4.376;2023-05-07T12:31:46;27.48;;;14.68;;
70052;SDS011;57398;52.032;4.376;2023-05-07T12:34:34;23.75;;;13.40;;
70052;SDS011;57398;52.032;4.376;2023-05-07T12:37:23;30.13;;;16.07;;
70052;SDS011;57398;52.032;4.376;2023-05-07T12:40:15;31.98;;;16.15;;
70052;SDS011;57398;52.032;4.376;2023-05-07T12:43:04;28.35;;;15.43;;
70052;SDS011;57398;52.032;4.376;2023-05-07T12:45:53;30.75;;;16.67;;
70052;SDS011;57398;52.032;4.376;2023-05-07T12:48:43;32.72;;;17.95;;
70052;SDS011;57398;52.032;4.376;2023-05-07T12:51:34;32.03;;;17.30;;
70052;SDS011;57398;52.032;4.376;2023-05-07T12:54:29;30.77;;;16.55;;
70052;SDS011;57398;52.032;4.376;2023-05-07T12:57:19;30.02;;;16.02;;
70052;SDS011;57398;52.032;4.376;2023-05-07T13:00:08;27.40;;;14.95;;
70052;SDS011;57398;52.032;4.376;2023-05-07T13:02:59;30.15;;;16.77;;
70052;SDS011;57398;52.032;4.376;2023-05-07T13:05:47;28.83;;;16.20;;
70052;SDS011;57398;52.032;4.376;2023-05-07T13:08:36;27.85;;;14.75;;
70052;SDS011;57398;52.032;4.376;2023-05-07T13:11:27;27.42;;;14.63;;
70052;SDS011;57398;52.032;4.376;2023-05-07T13:14:16;25.65;;;14.38;;
70052;SDS011;57398;52.032;4.376;2023-05-07T13:17:07;26.88;;;15.02;;
70052;SDS011;57398;52.032;4.376;2023-05-07T13:19:55;25.43;;;14.37;;
70052;SDS011;57398;52.032;4.376;2023-05-07T13:22:43;23.45;;;13.82;;
70052;SDS011;57398;52.032;4.376;2023-05-07T13:25:31;24.27;;;13.63;;
70052;SDS011;57398;52.032;4.376;2023-05-07T13:28:20;27.25;;;14.88;;
70052;SDS011;57398;52.032;4.376;2023-05-07T13:31:09;28.58;;;15.48;;
70052;SDS011;57398;52.032;4.376;2023-05-07T13:33:57;25.63;;;15.03;;
70052;SDS011;57398;52.032;4.376;2023-05-07T13:36:46;26.80;;;14.55;;
70052;SDS011;57398;52.032;4.376;2023-05-07T13:39:34;29.55;;;15.70;;
70052;SDS011;57398;52.032;4.376;2023-05-07T13:42:22;28.05;;;15.65;;
70052;SDS011;57398;52.032;4.376;2023-05-07T13:45:10;29.88;;;15.05;;
70052;SDS011;57398;52.032;4.376;2023-05-07T13:48:02;27.77;;;15.43;;
70052;SDS011;57398;52.032;4.376;2023-05-07T13:50:50;26.92;;;15.65;;
70052;SDS011;57398;52.032;4.376;2023-05-07T13:53:38;28.05;;;15.80;;
70052;SDS011;57398;52.032;4.376;2023-05-07T13:56:26;27.55;;;15.63;;
70052;SDS011;57398;52.032;4.376;2023-05-07T13:59:14;26.85;;;16.10;;
70052;SDS011;57398;52.032;4.376;2023-05-07T14:02:02;29.73;;;15.77;;
70052;SDS011;57398;52.032;4.376;2023-05-07T14:04:52;27.15;;;15.68;;
70052;SDS011;57398;52.032;4.376;2023-05-07T14:07:40;23.00;;;14.05;;
70052;SDS011;57398;52.032;4.376;2023-05-07T14:10:28;25.38;;;15.10;;
70052;SDS011;57398;52.032;4.376;2023-05-07T14:13:17;25.27;;;14.65;;
70052;SDS011;57398;52.032;4.376;2023-05-07T14:16:05;29.10;;;13.93;;
70052;SDS011;57398;52.032;4.376;2023-05-07T14:18:53;26.50;;;14.05;;
70052;SDS011;57398;52.032;4.376;2023-05-07T14:21:45;23.23;;;13.60;;
70052;SDS011;57398;52.032;4.376;2023-05-07T14:24:33;24.98;;;13.60;;
70052;SDS011;57398;52.032;4.376;2023-05-07T14:27:24;24.67;;;12.35;;
70052;SDS011;57398;52.032;4.376;2023-05-07T14:30:12;25.03;;;13.50;;
70052;SDS011;57398;52.032;4.376;2023-05-07T14:33:00;26.23;;;13.75;;
70052;SDS011;57398;52.032;4.376;2023-05-07T14:35:48;26.52;;;13.77;;
70052;SDS011;57398;52.032;4.376;2023-05-07T14:38:38;27.05;;;13.63;;
70052;SDS011;57398;52.032;4.376;2023-05-07T14:41:26;24.25;;;14.13;;
70052;SDS011;57398;52.032;4.376;2023-05-07T14:44:14;24.97;;;13.57;;
70052;SDS011;57398;52.032;4.376;2023-05-07T14:47:02;26.50;;;13.48;;
70052;SDS011;57398;52.032;4.376;2023-05-07T14:49:50;26.60;;;13.07;;
70052;SDS011;57398;52.032;4.376;2023-05-07T14:52:39;23.88;;;12.52;;
70052;SDS011;57398;52.032;4.376;2023-05-07T14:55:29;24.92;;;13.57;;
70052;SDS011;57398;52.032;4.376;2023-05-07T14:58:19;23.97;;;11.93;;
70052;SDS011;57398;52.032;4.376;2023-05-07T15:01:07;22.98;;;12.10;;
70052;SDS011;57398;52.032;4.376;2023-05-07T15:03:55;24.42;;;12.68;;
70052;SDS011;57398;52.032;4.376;2023-05-07T15:06:43;23.17;;;11.38;;
70052;SDS011;57398;52.032;4.376;2023-05-07T15:09:31;22.63;;;11.55;;
70052;SDS011;57398;52.032;4.376;2023-05-07T15:12:21;23.93;;;11.73;;
70052;SDS011;57398;52.032;4.376;2023-05-07T15:15:11;22.25;;;11.75;;
70052;SDS011;57398;52.032;4.376;2023-05-07T15:17:59;23.30;;;12.13;;
70052;SDS011;57398;52.032;4.376;2023-05-07T15:20:47;22.70;;;11.07;;
70052;SDS011;57398;52.032;4.376;2023-05-07T15:23:35;21.95;;;11.35;;
70052;SDS011;57398;52.032;4.376;2023-05-07T15:26:23;23.30;;;10.80;;
70052;SDS011;57398;52.032;4.376;2023-05-07T15:29:13;18.80;;;9.77;;
70052;SDS011;57398;52.032;4.376;2023-05-07T15:32:01;19.23;;;8.98;;
70052;SDS011;57398;52.032;4.376;2023-05-07T15:34:50;18.20;;;8.57;;
70052;SDS011;57398;52.032;4.376;2023-05-07T15:37:38;19.13;;;8.20;;
70052;SDS011;57398;52.032;4.376;2023-05-07T15:40:26;15.60;;;7.60;;
70052;SDS011;57398;52.032;4.376;2023-05-07T15:43:15;15.77;;;7.90;;
70052;SDS011;57398;52.032;4.376;2023-05-07T15:46:04;13.52;;;7.32;;
70052;SDS011;57398;52.032;4.376;2023-05-07T15:48:52;15.55;;;6.32;;
70052;SDS011;57398;52.032;4.376;2023-05-07T15:51:41;12.20;;;6.78;;
70052;SDS011;57398;52.032;4.376;2023-05-07T15:54:29;14.03;;;6.83;;
70052;SDS011;57398;52.032;4.376;2023-05-07T15:57:17;16.60;;;7.90;;
70052;SDS011;57398;52.032;4.376;2023-05-07T16:00:05;18.48;;;8.38;;
70052;SDS011;57398;52.032;4.376;2023-05-07T16:02:59;17.48;;;8.25;;
70052;SDS011;57398;52.032;4.376;2023-05-07T16:05:47;18.05;;;9.18;;
70052;SDS011;57398;52.032;4.376;2023-05-07T16:08:35;18.10;;;8.80;;
70052;SDS011;57398;52.032;4.376;2023-05-07T16:11:25;18.83;;;9.15;;
70052;SDS011;57398;52.032;4.376;2023-05-07T16:14:16;20.33;;;9.48;;
70052;SDS011;57398;52.032;4.376;2023-05-07T16:17:04;17.17;;;8.07;;
70052;SDS011;57398;52.032;4.376;2023-05-07T16:19:53;15.88;;;8.00;;
70052;SDS011;57398;52.032;4.376;2023-05-07T16:22:41;16.97;;;8.47;;
70052;SDS011;57398;52.032;4.376;2023-05-07T16:25:29;17.33;;;9.10;;
70052;SDS011;57398;52.032;4.376;2023-05-07T16:28:17;18.60;;;8.95;;
70052;SDS011;57398;52.032;4.376;2023-05-07T16:31:06;19.38;;;9.65;;
70052;SDS011;57398;52.032;4.376;2023-05-07T16:33:55;19.40;;;10.02;;
70052;SDS011;57398;52.032;4.376;2023-05-07T16:36:44;19.73;;;10.20;;
70052;SDS011;57398;52.032;4.376;2023-05-07T16:39:32;23.83;;;11.48;;